Time;durP1;ratioP1;P1;durP2;ratioP2;P2;SDS_P1;SDS_P2;PMS_P1;PMS_P2;Temp;Humidity;BMP_temperature;BMP_pressure;BME280_temperature;BME280_humidity;BME280_pressure;Samples;Min_cycle;Max_cycle;Signal;HPM_P1;HPM_P2
2023/04/26 00:01:56;;;;;;;;;;;;;;;;;;5023455;28;5890;-59
2023/04/26 00:04:22;;;;;;;;;;;;;;;;;;5028194;28;5141;-60
2023/04/26 00:06:48;;;;;;;;;;;;;;;;;;5022992;28;4770;-58
2023/04/26 00:09:13;;;;;;;;;;;;;;;;;;5029380;28;6384;-59
2023/04/26 00:11:38;;;;;;;;;;;;;;;;;;5030540;28;4433;-59
2023/04/26 00:14:04;;;;;;;;;;;;;;;;;;5028224;28;4780;-60
2023/04/26 00:16:29;;;;;;;;;;;;;;;;;;5029180;28;4579;-60
2023/04/26 00:18:55;;;;;;;;;;;;;;;;;;5030333;28;4495;-60
2023/04/26 00:21:20;;;;;;;;;;;;;;;;;;5025574;28;1093;-59
2023/04/26 00:23:45;;;;;;;;;;;;;;;;;;5030467;28;5375;-60
2023/04/26 00:26:11;;;;;;;;;;;;;;;;;;5030572;28;4489;-59
2023/04/26 00:28:36;;;;;;;;;;;;;;;;;;5029303;28;5115;-60
2023/04/26 00:31:01;;;;;;;;;;;;;;;;;;5030618;28;4887;-60
2023/04/26 00:33:26;;;;;;;;;;;;;;;;;;5030052;28;1579;-59
2023/04/26 00:35:52;;;;;;;;;;;;;;;;;;5030102;28;4819;-60
2023/04/26 00:38:17;;;;;;;;;;;;;;;;;;5029677;28;4630;-60
2023/04/26 00:40:42;;;;;;;;;;;;;;;;;;5026565;28;4518;-60
2023/04/26 00:43:07;;;;;;;;;;;;;;;;;;5029263;28;5114;-60
2023/04/26 00:45:33;;;;;;;;;;;;;;;;;;5029985;28;5107;-60
2023/04/26 00:47:58;;;;;;;;;;;;;;;;;;5030246;28;1265;-60
2023/04/26 00:50:24;;;;;;;;;;;;;;;;;;5045561;28;4695;-60
2023/04/26 00:52:49;;;;;;;;;;;;;;;;;;5038921;28;4426;-60
2023/04/26 00:55:15;;;;;;;;;;;;;;;;;;5029760;28;5099;-60
2023/04/26 00:57:40;;;;;;;;;;;;;;;;;;5025381;28;4528;-59
2023/04/26 01:00:05;;;;;;;;;;;;;;;;;;5027695;28;3247;-59
2023/04/26 01:02:31;;;;;;;;;;;;;;;;;;5019376;28;4977;-60
2023/04/26 01:04:56;;;;;;;;;;;;;;;;;;5025537;28;4657;-60
2023/04/26 01:07:22;;;;;;;;;;;;;;;;;;5026171;28;4755;-60
2023/04/26 01:09:47;;;;;;;;;;;;;;;;;;5029003;28;6256;-60
2023/04/26 01:12:12;;;;;;;;;;;;;;;;;;5028653;28;1261;-60
2023/04/26 01:14:38;;;;;;;;;;;;;;;;;;5040740;28;4625;-60
2023/04/26 01:17:04;;;;;;;;;;;;;;;;;;5018133;28;4434;-60
2023/04/26 01:19:31;;;;;;;;;;;;;;;;;;5027463;28;4518;-60
2023/04/26 01:21:56;;;;;;;;;;;;;;;;;;5029310;28;4619;-60
2023/04/26 01:24:21;;;;;;;;;;;;;;;;;;5029336;28;1156;-60
2023/04/26 01:26:47;;;;;;;;;;;;;;;;;;5029010;28;4626;-60
2023/04/26 01:29:15;;;;;;;;;;;;;;;;;;5060253;28;4603;-60
2023/04/26 01:31:41;;;;;;;;;;;;;;;;;;5027378;28;4657;-60
2023/04/26 01:34:06;;;;;;;;;;;;;;;;;;5028618;28;5197;-60
2023/04/26 01:36:31;;;;;;;;;;;;;;;;;;5029060;28;4475;-60
2023/04/26 01:38:56;;;;;;;;;;;;;;;;;;5029306;28;1910;-60
2023/04/26 01:41:23;;;;;;;;;;;;;;;;;;5028624;28;5054;-59
2023/04/26 01:43:48;;;;;;;;;;;;;;;;;;5028692;28;4879;-60
2023/04/26 01:46:13;;;;;;;;;;;;;;;;;;5028256;28;4712;-59
2023/04/26 01:48:39;;;;;;;;;;;;;;;;;;5022035;28;4641;-60
2023/04/26 01:51:04;;;;;;;;;;;;;;;;;;5018362;28;3182;-60
2023/04/26 01:53:30;;;;;;;;;;;;;;;;;;5016607;28;4672;-60
2023/04/26 01:55:55;;;;;;;;;;;;;;;;;;5017208;28;4689;-60
2023/04/26 01:58:21;;;;;;;;;;;;;;;;;;5023162;28;4746;-59
2023/04/26 02:00:46;;;;;;;;;;;;;;;;;;5023765;28;5263;-59
2023/04/26 02:03:11;;;;;;;;;;;;;;;;;;5018558;28;3231;-60
2023/04/26 02:05:37;;;;;;;;;;;;;;;;;;5025627;28;4678;-60
2023/04/26 02:08:02;;;;;;;;;;;;;;;;;;5020814;28;4645;-60
2023/04/26 02:10:27;;;;;;;;;;;;;;;;;;5019018;28;6531;-60
2023/04/26 02:12:53;;;;;;;;;;;;;;;;;;5021772;28;4713;-59
2023/04/26 02:15:18;;;;;;;;;;;;;;;;;;5028895;28;1241;-60
2023/04/26 02:17:43;;;;;;;;;;;;;;;;;;5027767;28;4648;-60
2023/04/26 02:20:09;;;;;;;;;;;;;;;;;;5027923;28;4453;-60
2023/04/26 02:22:34;;;;;;;;;;;;;;;;;;5028100;28;4966;-60
2023/04/26 02:25:00;;;;;;;;;;;;;;;;;;5028053;28;4460;-60
2023/04/26 02:27:26;;;;;;;;;;;;;;;;;;5028685;28;1154;-60
2023/04/26 02:29:51;;;;;;;;;;;;;;;;;;5027896;28;4993;-60
2023/04/26 02:32:17;;;;;;;;;;;;;;;;;;5027833;28;5208;-59
2023/04/26 02:34:43;;;;;;;;;;;;;;;;;;5027547;28;4454;-60
2023/04/26 02:37:08;;;;;;;;;;;;;;;;;;5018195;28;5934;-60
2023/04/26 02:39:33;;;;;;;;;;;;;;;;;;5023003;28;4529;-60
2023/04/26 02:41:59;;;;;;;;;;;;;;;;;;5028234;28;2977;-60
2023/04/26 02:44:24;;;;;;;;;;;;;;;;;;5026422;28;4578;-59
2023/04/26 02:46:49;;;;;;;;;;;;;;;;;;5016722;28;4461;-60
2023/04/26 02:49:15;;;;;;;;;;;;;;;;;;5027506;28;5155;-60
2023/04/26 02:51:40;;;;;;;;;;;;;;;;;;5022509;28;4731;-60
2023/04/26 02:54:06;;;;;;;;;;;;;;;;;;5020719;28;3171;-59
2023/04/26 02:56:31;;;;;;;;;;;;;;;;;;5023822;28;4527;-58
2023/04/26 02:58:56;;;;;;;;;;;;;;;;;;5023846;28;4853;-58
2023/04/26 03:01:22;;;;;;;;;;;;;;;;;;5026094;28;4442;-58
2023/04/26 03:03:48;;;;;;;;;;;;;;;;;;5027778;28;4467;-59
2023/04/26 03:06:13;;;;;;;;;;;;;;;;;;5028190;28;1306;-58
2023/04/26 03:08:38;;;;;;;;;;;;;;;;;;5024315;28;6408;-58
2023/04/26 03:11:03;;;;;;;;;;;;;;;;;;5020682;28;4552;-60
2023/04/26 03:13:29;;;;;;;;;;;;;;;;;;5025606;28;5290;-60
2023/04/26 03:15:54;;;;;;;;;;;;;;;;;;5027625;28;4624;-60
2023/04/26 03:18:19;;;;;;;;;;;;;;;;;;5027759;28;1208;-59
2023/04/26 03:20:45;;;;;;;;;;;;;;;;;;5021795;28;4993;-60
2023/04/26 03:23:10;;;;;;;;;;;;;;;;;;5027351;28;4449;-60
2023/04/26 03:25:35;;;;;;;;;;;;;;;;;;5030372;28;4878;-60
2023/04/26 03:28:01;;;;;;;;;;;;;;;;;;5031718;28;4631;-60
2023/04/26 03:30:26;;;;;;;;;;;;;;;;;;5031072;28;1817;-60
2023/04/26 03:32:52;;;;;;;;;;;;;;;;;;5028871;28;4680;-60
2023/04/26 03:35:17;;;;;;;;;;;;;;;;;;5021334;28;4533;-60
2023/04/26 03:37:43;;;;;;;;;;;;;;;;;;5030386;28;5207;-59
2023/04/26 03:40:08;;;;;;;;;;;;;;;;;;5029006;28;5131;-59
2023/04/26 03:42:34;;;;;;;;;;;;;;;;;;5030843;28;4635;-60
2023/04/26 03:45:00;;;;;;;;;;;;;;;;;;5031441;28;1210;-60
2023/04/26 03:47:25;;;;;;;;;;;;;;;;;;5031071;28;4431;-60
2023/04/26 03:49:50;;;;;;;;;;;;;;;;;;5030110;28;5221;-60
2023/04/26 03:52:16;;;;;;;;;;;;;;;;;;5017629;28;4640;-60
2023/04/26 03:54:41;;;;;;;;;;;;;;;;;;5024776;28;5600;-60
2023/04/26 03:57:06;;;;;;;;;;;;;;;;;;5027961;28;3090;-59
2023/04/26 03:59:31;;;;;;;;;;;;;;;;;;5028331;28;4610;-59
2023/04/26 04:01:57;;;;;;;;;;;;;;;;;;5021419;28;5249;-59
2023/04/26 04:04:22;;;;;;;;;;;;;;;;;;5028450;28;4729;-60
2023/04/26 04:06:47;;;;;;;;;;;;;;;;;;5030434;28;5225;-60
2023/04/26 04:09:13;;;;;;;;;;;;;;;;;;5022867;28;6413;-60
2023/04/26 04:11:38;;;;;;;;;;;;;;;;;;5024249;28;4627;-59
2023/04/26 04:14:03;;;;;;;;;;;;;;;;;;5028177;28;4496;-59
2023/04/26 04:16:28;;;;;;;;;;;;;;;;;;5023770;28;5111;-59
2023/04/26 04:18:54;;;;;;;;;;;;;;;;;;5021701;28;4745;-59
2023/04/26 04:21:19;;;;;;;;;;;;;;;;;;5031199;28;1168;-59
2023/04/26 04:23:44;;;;;;;;;;;;;;;;;;5021334;28;5511;-59
2023/04/26 04:26:11;;;;;;;;;;;;;;;;;;5019351;28;5054;-60
2023/04/26 04:28:36;;;;;;;;;;;;;;;;;;5029329;28;4684;-59
2023/04/26 04:31:02;;;;;;;;;;;;;;;;;;5040608;28;4565;-60
2023/04/26 04:33:28;;;;;;;;;;;;;;;;;;5020459;28;2131;-60
2023/04/26 04:35:53;;;;;;;;;;;;;;;;;;5018351;28;4396;-59
2023/04/26 04:38:19;;;;;;;;;;;;;;;;;;5029178;28;4410;-60
2023/04/26 04:40:46;;;;;;;;;;;;;;;;;;5026799;28;5086;-60
2023/04/26 04:43:11;;;;;;;;;;;;;;;;;;5029569;28;5564;-59
2023/04/26 04:45:37;;;;;;;;;;;;;;;;;;5029475;28;5322;-60
2023/04/26 04:48:04;;;;;;;;;;;;;;;;;;5028511;28;1500;-60
2023/04/26 04:50:30;;;;;;;;;;;;;;;;;;5028555;28;4979;-59
2023/04/26 04:52:56;;;;;;;;;;;;;;;;;;5025009;28;4994;-59
2023/04/26 04:55:21;;;;;;;;;;;;;;;;;;5021180;28;4571;-59
2023/04/26 04:57:46;;;;;;;;;;;;;;;;;;5026412;28;4621;-59
2023/04/26 05:00:13;;;;;;;;;;;;;;;;;;5029075;28;1910;-58
2023/04/26 05:02:38;;;;;;;;;;;;;;;;;;5027209;28;4452;-59
2023/04/26 05:05:03;;;;;;;;;;;;;;;;;;5029269;28;4490;-59
2023/04/26 05:07:30;;;;;;;;;;;;;;;;;;5029224;28;4931;-58
2023/04/26 05:09:55;;;;;;;;;;;;;;;;;;5027403;28;6347;-58
2023/04/26 05:12:21;;;;;;;;;;;;;;;;;;5024904;28;1109;-60
2023/04/26 05:14:46;;;;;;;;;;;;;;;;;;5028299;28;5046;-58
2023/04/26 05:17:11;;;;;;;;;;;;;;;;;;5024128;28;4656;-58
2023/04/26 05:19:36;;;;;;;;;;;;;;;;;;5029129;28;4651;-59
2023/04/26 05:22:02;;;;;;;;;;;;;;;;;;5028902;28;4474;-59
2023/04/26 05:24:29;;;;;;;;;;;;;;;;;;5029537;28;1113;-59
2023/04/26 05:26:55;;;;;;;;;;;;;;;;;;5028795;28;4795;-59
2023/04/26 05:29:20;;;;;;;;;;;;;;;;;;5028139;28;4889;-59
2023/04/26 05:31:46;;;;;;;;;;;;;;;;;;5027011;28;5312;-58
2023/04/26 05:34:11;;;;;;;;;;;;;;;;;;5027865;28;4813;-58
2023/04/26 05:36:36;;;;;;;;;;;;;;;;;;5012817;28;4639;-59
2023/04/26 05:39:01;;;;;;;;;;;;;;;;;;5027057;28;1915;-58
2023/04/26 05:41:27;;;;;;;;;;;;;;;;;;5026120;28;4447;-59
2023/04/26 05:43:52;;;;;;;;;;;;;;;;;;5028360;28;4471;-59
2023/04/26 05:46:17;;;;;;;;;;;;;;;;;;5023442;28;4602;-59
2023/04/26 05:48:43;;;;;;;;;;;;;;;;;;5021008;28;5093;-59
2023/04/26 05:51:08;;;;;;;;;;;;;;;;;;5029180;28;1110;-59
2023/04/26 05:53:33;;;;;;;;;;;;;;;;;;5028484;28;4482;-59
2023/04/26 05:55:58;;;;;;;;;;;;;;;;;;5020721;28;4585;-59
2023/04/26 05:58:24;;;;;;;;;;;;;;;;;;5017810;28;4653;-59
2023/04/26 06:00:49;;;;;;;;;;;;;;;;;;5023356;28;4958;-59
2023/04/26 06:03:14;;;;;;;;;;;;;;;;;;5026178;28;3129;-60
2023/04/26 06:05:40;;;;;;;;;;;;;;;;;;5028330;28;5085;-58
2023/04/26 06:08:05;;;;;;;;;;;;;;;;;;5027527;28;4465;-58
2023/04/26 06:10:30;;;;;;;;;;;;;;;;;;5016893;28;6607;-58
2023/04/26 06:12:55;;;;;;;;;;;;;;;;;;5025966;28;4482;-57
2023/04/26 06:15:21;;;;;;;;;;;;;;;;;;5023585;28;3309;-58
2023/04/26 06:17:46;;;;;;;;;;;;;;;;;;5018232;28;5252;-59
2023/04/26 06:20:11;;;;;;;;;;;;;;;;;;5025973;28;5005;-59
2023/04/26 06:22:37;;;;;;;;;;;;;;;;;;5026303;28;4524;-59
2023/04/26 06:25:03;;;;;;;;;;;;;;;;;;5028261;28;4643;-59
2023/04/26 06:27:28;;;;;;;;;;;;;;;;;;5015665;28;1163;-59
2023/04/26 06:29:54;;;;;;;;;;;;;;;;;;5027190;28;4396;-58
2023/04/26 06:32:19;;;;;;;;;;;;;;;;;;5025459;28;5206;-58
2023/04/26 06:34:44;;;;;;;;;;;;;;;;;;5020085;28;4739;-59
2023/04/26 06:37:10;;;;;;;;;;;;;;;;;;5027501;28;4793;-58
2023/04/26 06:39:37;;;;;;;;;;;;;;;;;;5020110;28;5011;-58
2023/04/26 06:42:02;;;;;;;;;;;;;;;;;;5024683;28;3099;-59
2023/04/26 06:44:27;;;;;;;;;;;;;;;;;;5027364;28;5015;-58
2023/04/26 06:46:54;;;;;;;;;;;;;;;;;;5042801;28;5110;-59
2023/04/26 06:49:19;;;;;;;;;;;;;;;;;;5027906;28;4476;-59
2023/04/26 06:51:44;;;;;;;;;;;;;;;;;;5012074;28;4709;-60
2023/04/26 06:54:11;;;;;;;;;;;;;;;;;;5017734;28;1153;-59
2023/04/26 06:56:36;;;;;;;;;;;;;;;;;;5027969;28;4863;-59
2023/04/26 06:59:02;;;;;;;;;;;;;;;;;;5027502;28;4677;-59
2023/04/26 07:01:28;;;;;;;;;;;;;;;;;;5026544;28;4651;-60
2023/04/26 07:03:56;;;;;;;;;;;;;;;;;;5007238;28;5169;-59
2023/04/26 07:06:22;;;;;;;;;;;;;;;;;;5019041;28;3112;-59
2023/04/26 07:08:47;;;;;;;;;;;;;;;;;;5029432;28;6454;-59
2023/04/26 07:11:12;;;;;;;;;;;;;;;;;;5030161;28;4971;-59
2023/04/26 07:13:37;;;;;;;;;;;;;;;;;;5026810;28;4674;-59
2023/04/26 07:16:03;;;;;;;;;;;;;;;;;;5025554;28;4458;-58
2023/04/26 07:18:28;;;;;;;;;;;;;;;;;;5029895;28;3251;-59
2023/04/26 07:20:54;;;;;;;;;;;;;;;;;;5021887;28;4860;-59
2023/04/26 07:23:19;;;;;;;;;;;;;;;;;;5023498;28;5086;-59
2023/04/26 07:25:44;;;;;;;;;;;;;;;;;;5030904;28;5489;-60
2023/04/26 07:28:10;;;;;;;;;;;;;;;;;;5029784;28;5006;-59
2023/04/26 07:30:35;;;;;;;;;;;;;;;;;;5023251;28;5094;-60
2023/04/26 07:33:00;;;;;;;;;;;;;;;;;;5026073;28;3360;-59
2023/04/26 07:35:26;;;;;;;;;;;;;;;;;;5017796;28;4499;-59
2023/04/26 07:37:51;;;;;;;;;;;;;;;;;;5024855;28;4946;-58
2023/04/26 07:40:17;;;;;;;;;;;;;;;;;;5024385;28;4701;-58
2023/04/26 07:42:42;;;;;;;;;;;;;;;;;;5030251;28;4662;-58
2023/04/26 07:45:08;;;;;;;;;;;;;;;;;;5023791;28;3084;-58
2023/04/26 07:47:33;;;;;;;;;;;;;;;;;;5026196;28;4599;-58
2023/04/26 07:49:59;;;;;;;;;;;;;;;;;;5021316;28;4657;-59
2023/04/26 07:52:24;;;;;;;;;;;;;;;;;;5022664;28;4542;-59
2023/04/26 07:54:50;;;;;;;;;;;;;;;;;;5015931;28;4483;-59
2023/04/26 07:57:15;;;;;;;;;;;;;;;;;;5026474;28;3277;-58
2023/04/26 07:59:41;;;;;;;;;;;;;;;;;;5027521;28;4592;-58
2023/04/26 08:02:06;;;;;;;;;;;;;;;;;;5019542;28;5045;-64
2023/04/26 08:04:32;;;;;;;;;;;;;;;;;;5015663;28;4535;-64
2023/04/26 08:06:58;;;;;;;;;;;;;;;;;;5017242;28;4607;-69
2023/04/26 08:09:23;;;;;;;;;;;;;;;;;;5022667;28;6941;-60
2023/04/26 08:11:48;;;;;;;;;;;;;;;;;;5021412;28;5303;-59
2023/04/26 08:14:13;;;;;;;;;;;;;;;;;;5019996;28;4657;-60
2023/04/26 08:16:40;;;;;;;;;;;;;;;;;;5018015;28;5100;-59
2023/04/26 08:19:05;;;;;;;;;;;;;;;;;;5023192;28;4702;-59
2023/04/26 08:21:31;;;;;;;;;;;;;;;;;;5028765;28;4652;-59
2023/04/26 08:23:56;;;;;;;;;;;;;;;;;;5021671;28;3281;-58
2023/04/26 08:26:22;;;;;;;;;;;;;;;;;;5020968;28;4503;-62
2023/04/26 08:28:47;;;;;;;;;;;;;;;;;;5027346;28;4515;-63
2023/04/26 08:31:12;;;;;;;;;;;;;;;;;;5016208;28;5127;-61
2023/04/26 08:33:37;;;;;;;;;;;;;;;;;;5019368;28;5091;-61
2023/04/26 08:36:03;;;;;;;;;;;;;;;;;;5023535;28;3422;-62
2023/04/26 08:38:29;;;;;;;;;;;;;;;;;;5034932;28;4661;-60
2023/04/26 08:40:55;;;;;;;;;;;;;;;;;;5027300;28;4509;-62
2023/04/26 08:43:20;;;;;;;;;;;;;;;;;;5024096;28;4516;-60
2023/04/26 08:45:46;;;;;;;;;;;;;;;;;;5045361;28;5137;-65
2023/04/26 08:48:14;;;;;;;;;;;;;;;;;;5021408;28;3244;-62
2023/04/26 08:50:40;;;;;;;;;;;;;;;;;;5016290;28;4638;-60
2023/04/26 08:53:05;;;;;;;;;;;;;;;;;;5020152;28;4531;-60
2023/04/26 08:55:31;;;;;;;;;;;;;;;;;;5021484;28;5097;-61
2023/04/26 08:57:56;;;;;;;;;;;;;;;;;;5022765;28;4531;-63
2023/04/26 09:00:22;;;;;;;;;;;;;;;;;;5025392;28;2357;-60
2023/04/26 09:02:48;;;;;;;;;;;;;;;;;;5020113;28;4476;-59
2023/04/26 09:05:13;;;;;;;;;;;;;;;;;;5013731;28;4490;-59
2023/04/26 09:07:40;;;;;;;;;;;;;;;;;;5022093;28;5035;-59
2023/04/26 09:10:05;;;;;;;;;;;;;;;;;;5018855;28;6778;-59
2023/04/26 09:12:30;;;;;;;;;;;;;;;;;;5019541;28;4661;-58
2023/04/26 09:14:56;;;;;;;;;;;;;;;;;;5019810;28;3256;-58
2023/04/26 09:17:25;;;;;;;;;;;;;;;;;;5016676;28;5134;-58
2023/04/26 09:19:50;;;;;;;;;;;;;;;;;;5020857;28;4875;-60
2023/04/26 09:22:26;;;;;;;;;;;;;;;;;;5020871;28;4499;-61
2023/04/26 09:24:51;;;;;;;;;;;;;;;;;;5028514;28;4453;-61
2023/04/26 09:27:17;;;;;;;;;;;;;;;;;;5028379;28;1183;-61
2023/04/26 09:30:11;;;;;;;;;;;;;;;;;;5027768;28;5051;-61
2023/04/26 09:32:43;;;;;;;;;;;;;;;;;;5006622;28;4477;-61
2023/04/26 09:35:12;;;;;;;;;;;;;;;;;;5027749;28;5165;-61
2023/04/26 09:37:37;;;;;;;;;;;;;;;;;;5026755;28;4867;-61
2023/04/26 09:40:05;;;;;;;;;;;;;;;;;;5042508;28;4687;-62
2023/04/26 09:42:31;;;;;;;;;;;;;;;;;;5025529;28;4990;-61
2023/04/26 09:45:04;;;;;;;;;;;;;;;;;;5023230;28;1168;-61
2023/04/26 09:47:29;;;;;;;;;;;;;;;;;;5028128;28;4442;-62
2023/04/26 09:49:55;;;;;;;;;;;;;;;;;;5026887;28;4488;-61
2023/04/26 09:52:20;;;;;;;;;;;;;;;;;;5027556;28;5067;-62
2023/04/26 09:54:50;;;;;;;;;;;;;;;;;;5043060;28;5207;-61
2023/04/26 09:57:16;;;;;;;;;;;;;;;;;;5048671;28;1155;-60
2023/04/26 09:59:42;;;;;;;;;;;;;;;;;;5045860;28;4524;-61
2023/04/26 10:02:09;;;;;;;;;;;;;;;;;;5041493;28;4640;-61
2023/04/26 10:04:34;;;;;;;;;;;;;;;;;;5035315;28;5087;-61
2023/04/26 10:06:59;;;;;;;;;;;;;;;;;;5022066;28;4654;-61
2023/04/26 10:09:25;;;;;;;;;;;;;;;;;;5026456;28;6566;-61
2023/04/26 10:11:52;;;;;;;;;;;;;;;;;;5021268;28;4622;-61
2023/04/26 10:14:17;;;;;;;;;;;;;;;;;;5026655;28;4542;-61
2023/04/26 10:16:42;;;;;;;;;;;;;;;;;;5059638;28;4667;-61
2023/04/26 10:19:08;;;;;;;;;;;;;;;;;;5027968;28;4616;-60
2023/04/26 10:21:34;;;;;;;;;;;;;;;;;;5028254;28;5066;-61
2023/04/26 10:23:59;;;;;;;;;;;;;;;;;;5027053;28;1274;-61
2023/04/26 10:26:43;;;;;;;;;;;;;;;;;;5042778;28;5286;-60
2023/04/26 10:29:08;;;;;;;;;;;;;;;;;;5027254;28;5002;-60
2023/04/26 10:31:52;;;;;;;;;;;;;;;;;;5027270;28;4642;-61
2023/04/26 10:34:21;;;;;;;;;;;;;;;;;;5026431;28;5004;-60
2023/04/26 10:37:05;;;;;;;;;;;;;;;;;;5027404;28;4501;-61
2023/04/26 10:39:30;;;;;;;;;;;;;;;;;;5021741;28;4882;-61
2023/04/26 10:42:22;;;;;;;;;;;;;;;;;;5028213;28;1089;-61
2023/04/26 10:44:48;;;;;;;;;;;;;;;;;;5019475;28;4664;-62
2023/04/26 10:47:30;;;;;;;;;;;;;;;;;;5027650;28;4571;-61
2023/04/26 10:50:05;;;;;;;;;;;;;;;;;;5027581;28;4446;-62
2023/04/26 10:52:30;;;;;;;;;;;;;;;;;;5014322;28;4713;-61
2023/04/26 10:54:56;;;;;;;;;;;;;;;;;;5023675;28;5099;-62
2023/04/26 10:57:21;;;;;;;;;;;;;;;;;;5024647;28;1189;-61
2023/04/26 11:00:23;;;;;;;;;;;;;;;;;;5026549;28;4506;-61
2023/04/26 11:02:51;;;;;;;;;;;;;;;;;;4980917;28;5161;-61
2023/04/26 11:05:31;;;;;;;;;;;;;;;;;;5019315;28;5068;-61
2023/04/26 11:08:26;;;;;;;;;;;;;;;;;;5027271;28;5118;-60
2023/04/26 11:10:56;;;;;;;;;;;;;;;;;;5014607;28;4458;-60
2023/04/26 11:13:21;;;;;;;;;;;;;;;;;;5027483;28;4464;-62
2023/04/26 11:15:46;;;;;;;;;;;;;;;;;;5028025;28;4657;-61
2023/04/26 11:18:12;;;;;;;;;;;;;;;;;;5026637;28;1373;-62
2023/04/26 11:20:37;;;;;;;;;;;;;;;;;;5027575;28;4442;-60
2023/04/26 11:23:02;;;;;;;;;;;;;;;;;;5027436;28;4491;-61
2023/04/26 11:25:28;;;;;;;;;;;;;;;;;;5027218;28;4476;-60
2023/04/26 11:27:57;;;;;;;;;;;;;;;;;;5027292;28;4664;-60
2023/04/26 11:30:23;;;;;;;;;;;;;;;;;;5026017;28;1640;-61
2023/04/26 11:32:48;;;;;;;;;;;;;;;;;;5027388;28;4679;-61
2023/04/26 11:35:14;;;;;;;;;;;;;;;;;;5027659;28;4838;-61
2023/04/26 11:37:39;;;;;;;;;;;;;;;;;;5027604;28;4642;-60
2023/04/26 11:40:08;;;;;;;;;;;;;;;;;;5027230;28;4685;-62
2023/04/26 11:42:33;;;;;;;;;;;;;;;;;;5038279;28;4492;-61
2023/04/26 11:45:00;;;;;;;;;;;;;;;;;;5028363;28;1232;-61
2023/04/26 11:47:29;;;;;;;;;;;;;;;;;;5030855;28;5315;-62
2023/04/26 11:49:55;;;;;;;;;;;;;;;;;;5030596;28;4682;-61
2023/04/26 11:52:20;;;;;;;;;;;;;;;;;;5030598;28;4542;-62
2023/04/26 11:54:45;;;;;;;;;;;;;;;;;;5030995;28;4523;-62
2023/04/26 11:57:14;;;;;;;;;;;;;;;;;;5030493;28;1076;-61
2023/04/26 11:59:39;;;;;;;;;;;;;;;;;;5029558;28;5026;-61
2023/04/26 12:02:06;;;;;;;;;;;;;;;;;;5028713;28;5072;-62
2023/04/26 12:04:31;;;;;;;;;;;;;;;;;;5031813;28;4478;-62
2023/04/26 12:06:56;;;;;;;;;;;;;;;;;;5030472;28;4604;-62
2023/04/26 12:09:23;;;;;;;;;;;;;;;;;;5029822;28;6650;-61
2023/04/26 12:11:52;;;;;;;;;;;;;;;;;;5030277;28;4465;-61
2023/04/26 12:14:17;;;;;;;;;;;;;;;;;;5029199;28;4491;-61
2023/04/26 12:16:43;;;;;;;;;;;;;;;;;;5030766;28;5059;-61
2023/04/26 12:19:10;;;;;;;;;;;;;;;;;;5030690;28;4491;-61
2023/04/26 12:21:41;;;;;;;;;;;;;;;;;;5030390;28;5035;-61
2023/04/26 12:24:07;;;;;;;;;;;;;;;;;;5030848;28;1288;-61
2023/04/26 12:26:40;;;;;;;;;;;;;;;;;;5028786;28;4639;-61
2023/04/26 12:29:05;;;;;;;;;;;;;;;;;;5030043;28;4951;-62
2023/04/26 12:31:30;;;;;;;;;;;;;;;;;;5030656;28;4537;-61
2023/04/26 12:33:55;;;;;;;;;;;;;;;;;;5030350;28;4471;-61
2023/04/26 12:36:21;;;;;;;;;;;;;;;;;;5030793;28;1095;-62
2023/04/26 12:38:46;;;;;;;;;;;;;;;;;;5030012;28;5041;-62
2023/04/26 12:41:11;;;;;;;;;;;;;;;;;;5030105;28;5234;-61
2023/04/26 12:43:37;;;;;;;;;;;;;;;;;;5029953;28;4622;-62
2023/04/26 12:46:02;;;;;;;;;;;;;;;;;;5028369;28;4680;-61
2023/04/26 12:48:27;;;;;;;;;;;;;;;;;;5030370;28;1136;-62
2023/04/26 12:50:53;;;;;;;;;;;;;;;;;;5029856;28;4392;-61
2023/04/26 12:53:18;;;;;;;;;;;;;;;;;;5029428;28;4494;-61
2023/04/26 12:55:43;;;;;;;;;;;;;;;;;;5028907;28;4562;-61
2023/04/26 12:58:09;;;;;;;;;;;;;;;;;;5027629;28;4485;-62
2023/04/26 13:00:34;;;;;;;;;;;;;;;;;;5029407;28;4573;-61
2023/04/26 13:03:00;;;;;;;;;;;;;;;;;;5026921;28;1094;-61
2023/04/26 13:05:25;;;;;;;;;;;;;;;;;;5029609;28;5356;-62
2023/04/26 13:07:50;;;;;;;;;;;;;;;;;;5029119;28;4673;-61
2023/04/26 13:10:16;;;;;;;;;;;;;;;;;;5027895;28;6672;-61
2023/04/26 13:12:41;;;;;;;;;;;;;;;;;;5029443;28;4589;-61
2023/04/26 13:15:06;;;;;;;;;;;;;;;;;;5029880;28;1100;-62
2023/04/26 13:17:32;;;;;;;;;;;;;;;;;;5029928;28;4371;-61
2023/04/26 13:19:57;;;;;;;;;;;;;;;;;;5029456;28;4728;-61
2023/04/26 13:22:22;;;;;;;;;;;;;;;;;;5029093;28;5136;-61
2023/04/26 13:24:47;;;;;;;;;;;;;;;;;;5029146;28;4505;-61
2023/04/26 13:27:13;;;;;;;;;;;;;;;;;;5030018;28;1109;-61
2023/04/26 13:29:38;;;;;;;;;;;;;;;;;;5028711;28;4533;-61
2023/04/26 13:32:04;;;;;;;;;;;;;;;;;;5028923;28;4939;-61
2023/04/26 13:34:29;;;;;;;;;;;;;;;;;;5028988;28;4612;-61
2023/04/26 13:36:59;;;;;;;;;;;;;;;;;;5028676;28;4610;-62
2023/04/26 13:39:24;;;;;;;;;;;;;;;;;;5028968;28;1989;-61
2023/04/26 13:41:50;;;;;;;;;;;;;;;;;;5028824;28;4588;-61
2023/04/26 13:44:15;;;;;;;;;;;;;;;;;;5028606;28;5059;-62
2023/04/26 13:46:41;;;;;;;;;;;;;;;;;;5028504;28;4482;-62
2023/04/26 13:49:07;;;;;;;;;;;;;;;;;;5028319;28;4526;-62
2023/04/26 13:51:33;;;;;;;;;;;;;;;;;;5026510;28;4656;-61
2023/04/26 13:53:58;;;;;;;;;;;;;;;;;;5028814;28;1157;-62
2023/04/26 13:56:24;;;;;;;;;;;;;;;;;;5028414;28;4891;-62
2023/04/26 13:58:49;;;;;;;;;;;;;;;;;;5027893;28;4442;-61
2023/04/26 14:01:14;;;;;;;;;;;;;;;;;;5023643;28;5201;-61
2023/04/26 14:03:40;;;;;;;;;;;;;;;;;;5028659;28;4963;-61
2023/04/26 14:06:05;;;;;;;;;;;;;;;;;;5029114;28;1310;-60
2023/04/26 14:08:31;;;;;;;;;;;;;;;;;;5026086;28;6153;-60
2023/04/26 14:10:56;;;;;;;;;;;;;;;;;;5026634;28;4442;-61
2023/04/26 14:13:21;;;;;;;;;;;;;;;;;;5028123;28;4653;-61
2023/04/26 14:15:46;;;;;;;;;;;;;;;;;;5028186;28;4696;-61
2023/04/26 14:18:12;;;;;;;;;;;;;;;;;;5028505;28;992;-61
2023/04/26 14:20:37;;;;;;;;;;;;;;;;;;5028122;28;5059;-61
2023/04/26 14:23:03;;;;;;;;;;;;;;;;;;5027777;28;4644;-60
2023/04/26 14:25:28;;;;;;;;;;;;;;;;;;5027873;28;4665;-60
2023/04/26 14:27:53;;;;;;;;;;;;;;;;;;5028154;28;5190;-61
2023/04/26 14:30:19;;;;;;;;;;;;;;;;;;5028051;28;1556;-61
2023/04/26 14:32:44;;;;;;;;;;;;;;;;;;5027826;28;4951;-61
2023/04/26 14:35:09;;;;;;;;;;;;;;;;;;5027686;28;4927;-60
2023/04/26 14:37:35;;;;;;;;;;;;;;;;;;5027813;28;5026;-60
2023/04/26 14:40:00;;;;;;;;;;;;;;;;;;5027888;28;5065;-60
2023/04/26 14:42:26;;;;;;;;;;;;;;;;;;5028380;28;1186;-62
2023/04/26 14:44:51;;;;;;;;;;;;;;;;;;5027667;28;4583;-60
2023/04/26 14:47:16;;;;;;;;;;;;;;;;;;5024702;28;4452;-62
2023/04/26 14:49:41;;;;;;;;;;;;;;;;;;5027863;28;4871;-62
2023/04/26 14:52:07;;;;;;;;;;;;;;;;;;5027757;28;4609;-62
2023/04/26 14:54:41;;;;;;;;;;;;;;;;;;5028133;28;4963;-62
2023/04/26 14:57:06;;;;;;;;;;;;;;;;;;5028565;28;1307;-62
2023/04/26 14:59:32;;;;;;;;;;;;;;;;;;5027267;28;4578;-62
2023/04/26 15:01:57;;;;;;;;;;;;;;;;;;5026131;28;4458;-61
2023/04/26 15:04:24;;;;;;;;;;;;;;;;;;5027088;28;4480;-60
2023/04/26 15:06:49;;;;;;;;;;;;;;;;;;5027268;28;4616;-60
2023/04/26 15:09:15;;;;;;;;;;;;;;;;;;5025687;28;6348;-60
2023/04/26 15:11:40;;;;;;;;;;;;;;;;;;5027226;28;5020;-61
2023/04/26 15:14:06;;;;;;;;;;;;;;;;;;5025653;28;4506;-61
2023/04/26 15:16:31;;;;;;;;;;;;;;;;;;5026307;28;5344;-61
2023/04/26 15:18:56;;;;;;;;;;;;;;;;;;5027623;28;4692;-60
2023/04/26 15:21:21;;;;;;;;;;;;;;;;;;5028786;28;2000;-61
2023/04/26 15:23:47;;;;;;;;;;;;;;;;;;5029522;28;5110;-60
2023/04/26 15:26:12;;;;;;;;;;;;;;;;;;5030875;28;4576;-60
2023/04/26 15:28:37;;;;;;;;;;;;;;;;;;5031258;28;4695;-60
2023/04/26 15:31:03;;;;;;;;;;;;;;;;;;5030355;28;4455;-61
2023/04/26 15:33:29;;;;;;;;;;;;;;;;;;5031882;28;1089;-60
2023/04/26 15:35:55;;;;;;;;;;;;;;;;;;5030700;28;4480;-60
2023/04/26 15:38:20;;;;;;;;;;;;;;;;;;5029621;28;4962;-61
2023/04/26 15:40:45;;;;;;;;;;;;;;;;;;5030703;28;5121;-61
2023/04/26 15:43:11;;;;;;;;;;;;;;;;;;5028706;28;4538;-60
2023/04/26 15:45:36;;;;;;;;;;;;;;;;;;5031094;28;4984;-61
2023/04/26 15:48:01;;;;;;;;;;;;;;;;;;5031311;28;1187;-62
2023/04/26 15:50:26;;;;;;;;;;;;;;;;;;5030101;28;4679;-61
2023/04/26 15:52:52;;;;;;;;;;;;;;;;;;5030562;28;4946;-61
2023/04/26 15:55:17;;;;;;;;;;;;;;;;;;5030299;28;4629;-61
2023/04/26 15:57:42;;;;;;;;;;;;;;;;;;5030665;28;5035;-60
2023/04/26 16:00:08;;;;;;;;;;;;;;;;;;5030244;28;1986;-61
2023/04/26 16:02:33;;;;;;;;;;;;;;;;;;5027562;28;4482;-60
2023/04/26 16:04:59;;;;;;;;;;;;;;;;;;5030425;28;4522;-61
2023/04/26 16:07:24;;;;;;;;;;;;;;;;;;5030142;28;5107;-60
2023/04/26 16:09:50;;;;;;;;;;;;;;;;;;5027934;28;6399;-61
2023/04/26 16:12:15;;;;;;;;;;;;;;;;;;5031138;28;1209;-61
2023/04/26 16:14:40;;;;;;;;;;;;;;;;;;5030385;28;4404;-61
2023/04/26 16:17:05;;;;;;;;;;;;;;;;;;5030174;28;5102;-61
2023/04/26 16:19:31;;;;;;;;;;;;;;;;;;5030143;28;4459;-62
2023/04/26 16:21:56;;;;;;;;;;;;;;;;;;5030031;28;4816;-62
2023/04/26 16:24:21;;;;;;;;;;;;;;;;;;5030623;28;1081;-61
2023/04/26 16:26:46;;;;;;;;;;;;;;;;;;5030083;28;4975;-61
2023/04/26 16:29:12;;;;;;;;;;;;;;;;;;5029625;28;4407;-61
2023/04/26 16:31:37;;;;;;;;;;;;;;;;;;5027547;28;4517;-61
2023/04/26 16:34:02;;;;;;;;;;;;;;;;;;5029731;28;4464;-61
2023/04/26 16:36:28;;;;;;;;;;;;;;;;;;5030188;28;1183;-61
2023/04/26 16:38:53;;;;;;;;;;;;;;;;;;5029116;28;4958;-61
2023/04/26 16:41:18;;;;;;;;;;;;;;;;;;5029893;28;4494;-61
2023/04/26 16:43:44;;;;;;;;;;;;;;;;;;5029902;28;4870;-61
2023/04/26 16:46:10;;;;;;;;;;;;;;;;;;5029744;28;4624;-61
2023/04/26 16:48:36;;;;;;;;;;;;;;;;;;5028106;28;4980;-61
2023/04/26 16:51:02;;;;;;;;;;;;;;;;;;5030092;28;1113;-61
2023/04/26 16:53:27;;;;;;;;;;;;;;;;;;5028316;28;4488;-62
2023/04/26 16:55:52;;;;;;;;;;;;;;;;;;5028196;28;4693;-61